Latest Weather Observations for Derby

IDW60801

Issued at 4:43 pm WST Tuesday 22 October 2019 (issued every 10 minutes, with the page automatically refreshed every 10 minutes)

About weather observations | Map of weather stations | Latest weather observations for WA | Other Formats
Station Details ID: 003032 Name: DERBY AERO Lat: -17.37 Lon: 123.66 Height: 6.2 m
Data from the previous 72 hours. | See also: Recent months at Derby
Date/Time
WST
Temp
°C
App
Temp
°C
Dew
Point
°C
Rel
Hum
%
Delta-T
°C
Wind Press
QNH
hPa
Press
MSL
hPa
Rain since
9am
mm
Dir  Spd
km/h
Gust
km/h
Spd
kts
Gust
kts
22/04:30pm 34.5 28.8 11.0 24 13.8 NNW 32 39 17 21 1007.8 1007.8 0.0
22/04:00pm 35.1 29.1 12.1 25 13.8 NNW 35 43 19 23 1007.7 1007.7 0.0
22/03:30pm 36.0 31.0 12.3 24 14.2 NW 30 37 16 20 1007.6 1007.6 0.0
22/03:00pm 36.0 30.6 12.3 24 14.3 NNW 32 39 17 21 1007.7 1007.7 0.0
22/02:30pm 36.5 30.3 11.3 22 15.0 NW 35 43 19 23 1007.8 1007.8 0.0
22/02:00pm 36.9 30.4 11.7 22 15.1 NW 37 46 20 25 1007.9 1007.9 0.0
22/01:30pm 37.8 31.4 8.6 17 16.7 NNW 32 46 17 25 1007.8 1007.8 0.0
22/01:00pm 38.3 35.2 12.1 21 15.9 NNE 20 30 11 16 1007.7 1007.7 0.0
22/12:30pm 37.5 35.5 11.5 21 15.5 NNE 13 24 7 13 1008.4 1008.4 0.0
22/12:00pm 36.9 34.2 13.0 24 14.6 NNW 19 28 10 15 1009.1 1009.1 0.0
22/11:30am 37.1 34.7 12.5 23 14.9 N 17 30 9 16 1009.6 1009.6 0.0
22/11:00am 35.8 35.1 16.5 31 12.3 N 15 24 8 13 1009.9 1009.9 0.0
22/10:30am 35.4 36.5 18.0 35 11.3 NNW 9 17 5 9 1010.4 1010.4 0.0
22/10:00am 33.8 34.3 17.5 38 10.5 NNE 11 15 6 8 1010.7 1010.7 0.0
22/09:30am 33.0 33.9 17.6 40 9.9 N 9 19 5 10 1010.8 1010.8 0.0
22/09:00am 32.8 34.4 20.0 47 8.5 NNW 11 22 6 12 1010.9 1010.9 0.0
22/08:30am 31.5 33.3 18.8 46 8.3 NNE 7 11 4 6 1011.0 1011.0 0.0
22/08:00am 30.8 32.6 18.2 47 8.1 SSW 6 9 3 5 1010.9 1010.9 0.0
22/07:30am 28.8 30.8 20.0 59 5.8 WNW 9 13 5 7 1010.9 1010.9 0.0
22/07:00am 28.4 30.0 20.7 63 5.1 WNW 13 17 7 9 1010.6 1010.6 0.0
22/06:30am 27.7 29.7 21.5 69 4.1 WNW 13 15 7 8 1010.5 1010.5 0.0
22/06:00am 25.7 28.5 19.6 69 3.9 WNW 4 7 2 4 1010.3 1010.3 0.0
22/05:30am 24.9 26.0 18.8 69 3.9 W 11 13 6 7 1010.2 1010.2 0.0
22/05:00am 24.2 24.0 16.7 63 4.6 WNW 13 15 7 8 1010.2 1010.2 0.0
22/04:30am 24.6 24.2 16.3 60 5.1 NW 13 15 7 8 1010.2 1010.2 0.0
22/04:00am 25.6 25.0 16.7 58 5.5 W 15 20 8 11 1010.2 1010.2 0.0
22/03:30am 25.3 24.9 17.2 61 5.0 W 15 17 8 9 1010.0 1010.0 0.0
22/03:00am 25.3 25.6 18.7 67 4.2 WNW 15 17 8 9 1009.7 1009.7 0.0
22/02:30am 25.4 26.7 20.9 76 3.0 W 15 17 8 9 1009.7 1009.7 0.0
22/02:00am 25.2 26.5 20.2 74 3.3 WNW 13 15 7 8 1009.8 1009.8 0.0
22/01:30am 25.9 26.9 20.2 71 3.7 WNW 15 17 8 9 1010.0 1010.0 0.0
22/01:00am 26.6 28.6 20.0 67 4.3 NW 9 11 5 6 1010.4 1010.4 0.0
22/12:30am 27.0 28.8 19.6 64 4.8 NW 9 11 5 6 1010.5 1010.5 0.0
22/12:00am 27.5 27.7 19.3 61 5.3 WNW 17 19 9 10 1010.6 1010.6 0.0
 
Date/Time
WST
Temp
°C
App
Temp
°C
Dew
Point
°C
Rel
Hum
%
Delta-T
°C
Wind Press
QNH
hPa
Press
MSL
hPa
Rain since
9am
mm
Dir  Spd
km/h
Gust
km/h
Spd
kts
Gust
kts
21/11:30pm 27.7 30.3 20.5 65 4.7 NW 7 9 4 5 1010.9 1010.9 0.0
21/11:00pm 28.2 31.1 21.7 68 4.4 NNW 9 11 5 6 1011.1 1011.1 0.0
21/10:30pm 28.7 31.2 21.7 66 4.7 NNE 11 13 6 7 1011.2 1011.2 0.0
21/10:00pm 29.2 31.6 22.2 66 4.7 NW 13 17 7 9 1011.1 1011.1 0.0
21/09:30pm 29.4 31.4 22.9 68 4.4 NW 17 20 9 11 1011.0 1011.0 0.0
21/09:00pm 29.9 30.7 23.1 67 4.7 NW 24 30 13 16 1010.9 1010.9 0.0
21/08:30pm 29.9 31.4 23.1 67 4.7 NW 20 28 11 15 1010.7 1010.7 0.0
21/08:00pm 29.9 29.5 23.1 67 4.7 NW 30 37 16 20 1010.1 1010.1 0.0
21/07:30pm 30.4 30.0 23.1 65 5.0 NW 30 35 16 19 1009.8 1009.8 0.0
21/07:00pm 30.7 30.9 23.4 65 5.0 NNW 28 35 15 19 1009.6 1009.6 0.0
21/06:30pm 30.7 30.8 23.9 67 4.7 NNW 30 35 16 19 1009.3 1009.3 0.0
21/06:00pm 30.9 30.8 24.3 68 4.6 NNW 32 41 17 22 1009.0 1009.0 0.0
21/05:30pm 31.5 30.6 22.8 60 6.0 NW 32 41 17 22 1008.7 1008.7 0.0
21/05:00pm 32.4 31.3 23.4 59 6.2 NNW 35 41 19 22 1008.3 1008.3 0.0
21/04:30pm 34.5 32.5 20.8 44 9.2 NW 32 41 17 22 1007.9 1007.9 0.0
21/04:00pm 36.5 33.2 17.1 31 12.5 NNW 30 37 16 20 1008.0 1008.0 0.0
21/03:30pm 39.0 34.8 13.4 22 15.8 NNW 28 33 15 18 1008.0 1008.0 0.0
21/03:00pm 39.0 34.4 13.4 22 15.8 NW 30 37 16 20 1008.0 1008.0 0.0
21/02:30pm 39.3 35.0 12.2 20 16.5 NW 26 33 14 18 1008.5 1008.5 0.0
21/02:00pm 38.8 35.8 15.8 25 14.7 NW 26 35 14 19 1008.6 1008.6 0.0
21/01:30pm 40.2 37.1 14.4 22 16.2 NW 24 30 13 16 1008.9 1008.9 0.0
21/01:00pm 40.2 36.3 12.1 19 17.1 NW 24 33 13 18 1009.4 1009.4 0.0
21/12:30pm 41.1 39.3 9.3 15 18.7 S 9 17 5 9 1010.0 1010.0 0.0
21/12:00pm 40.2 37.3 9.6 16 18.0 ENE 15 22 8 12 1010.6 1010.6 0.0
21/11:30am 39.3 37.4 8.9 16 17.6 SE 9 22 5 12 1011.2 1011.2 0.0
21/11:00am 39.5 36.7 9.9 17 17.4 SSE 15 24 8 13 1011.5 1011.5 0.0
21/10:30am 38.0 34.3 9.6 18 16.5 ESE 19 39 10 21 1012.0 1012.0 0.0
21/10:00am 38.1 33.7 10.5 19 16.3 ESE 24 37 13 20 1012.3 1012.3 0.0
21/09:30am 36.8 32.0 10.2 20 15.5 ESE 26 33 14 18 1012.5 1012.5 0.0
21/09:00am 36.4 31.5 9.8 20 15.4 ESE 26 35 14 19 1012.7 1012.7 0.0
21/08:30am 35.5 30.8 9.1 20 15.1 ESE 24 35 13 19 1012.7 1012.7 0.0
21/08:00am 34.3 30.9 13.7 29 12.6 SE 24 32 13 17 1012.7 1012.7 0.0
21/07:30am 32.3 31.6 19.5 46 8.4 SE 22 32 12 17 1012.7 1012.7 0.0
21/07:00am 30.4 31.5 22.0 60 5.7 ESE 19 26 10 14 1012.4 1012.4 0.0
21/06:30am 29.0 31.1 23.7 73 3.7 ESE 19 26 10 14 1012.4 1012.4 0.0
21/06:00am 27.9 29.1 19.9 61 5.2 S 13 22 7 12 1011.8 1011.8 0.0
21/05:30am 27.9 29.9 24.5 82 2.4 WSW 22 30 12 16 1011.4 1011.4 0.0
21/05:00am 27.7 29.8 25.3 87 1.7 NNW 24 28 13 15 1010.1 1010.1 0.0
21/04:30am 27.5 30.5 25.3 88 1.5 NNW 19 26 10 14 1010.2 1010.2 0.0
21/04:00am 27.7 29.4 25.3 87 1.7 NNW 26 33 14 18 1010.3 1010.3 0.0
21/03:30am 27.8 30.5 25.0 85 2.0 NNW 20 26 11 14 1010.4 1010.4 0.0
21/03:00am 28.0 29.8 24.8 83 2.2 N 24 32 13 17 1010.0 1010.0 0.0
21/02:30am 28.2 30.7 24.8 82 2.4 NNW 20 28 11 15 1010.2 1010.2 0.0
21/02:00am 28.5 30.6 24.7 80 2.7 NW 22 28 12 15 1010.2 1010.2 0.0
21/01:30am 28.9 30.7 24.2 76 3.3 NNW 22 26 12 14 1010.2 1010.2 0.0
21/01:00am 29.3 31.5 24.0 73 3.7 NNW 19 24 10 13 1010.5 1010.5 0.0
21/12:30am 30.0 32.4 23.7 69 4.4 NNW 17 26 9 14 1010.2 1010.2 0.0
21/12:00am 28.9 28.4 13.9 39 9.0 WNW 9 15 5 8 1010.1 1010.1 0.0
 
Date/Time
WST
Temp
°C
App
Temp
°C
Dew
Point
°C
Rel
Hum
%
Delta-T
°C
Wind Press
QNH
hPa
Press
MSL
hPa
Rain since
9am
mm
Dir  Spd
km/h
Gust
km/h
Spd
kts
Gust
kts
20/11:30pm 31.2 30.6 13.5 34 10.6 NE 9 17 5 9 1010.8 1010.8 0.0
20/11:00pm 31.8 29.8 14.0 34 10.8 NE 17 26 9 14 1010.9 1010.9 0.0
20/10:30pm 30.7 30.2 13.9 36 10.1 S 9 11 5 6 1010.2 1010.2 0.0
20/10:00pm 31.4 29.9 14.1 35 10.5 SSW 15 17 8 9 1010.1 1010.1 0.0
20/09:30pm 32.2 30.9 14.8 35 10.7 SW 15 19 8 10 1010.0 1010.0 0.0
20/09:00pm 32.6 31.8 17.2 39 9.8 WSW 17 20 9 11 1009.8 1009.8 0.0
20/08:30pm 32.5 32.5 17.2 40 9.7 WSW 13 15 7 8 1009.7 1009.7 0.0
20/08:00pm 32.0 32.8 18.2 43 8.9 WSW 11 15 6 8 1009.5 1009.5 0.0
20/07:30pm 31.6 34.4 20.8 52 7.2 W 7 9 4 5 1009.3 1009.3 0.0
20/07:00pm 31.7 33.9 20.3 50 7.6 NW 9 11 5 6 1009.1 1009.1 0.0
20/06:30pm 33.2 34.9 18.6 42 9.5 NW 7 13 4 7 1008.7 1008.7 0.0
20/06:00pm 34.9 34.9 16.2 32 11.9 NW 11 15 6 8 1008.3 1008.3 0.0
20/05:30pm 37.4 35.2 12.1 22 15.2 WNW 15 20 8 11 1007.8 1007.8 0.0
20/05:00pm 39.0 36.0 12.0 20 16.4 NW 19 20 10 11 1007.6 1007.6 0.0
20/04:30pm 40.4 37.2 13.1 20 16.9 NW 22 28 12 15 1007.3 1007.3 0.0
20/04:00pm 41.5 37.8 11.5 17 18.2 NW 22 28 12 15 1007.3 1007.3 0.0
20/03:30pm 41.0 38.0 12.0 18 17.7 NNW 19 24 10 13 1007.5 1007.5 0.0
20/03:00pm 42.8 39.9 4.7 10 21.1 E 9 15 5 8 1007.5 1007.5 0.0
20/02:30pm 43.1 39.9 4.9 10 21.3 NE 11 24 6 13 1007.8 1007.8 0.0
20/02:00pm 43.3 38.6 5.1 10 21.4 E 19 30 10 16 1008.1 1008.1 0.0
20/01:30pm 43.0 40.5 4.9 10 21.2 WNW 7 20 4 11 1008.5 1008.5 0.0
20/01:00pm 42.7 38.3 4.6 10 21.1 ENE 17 26 9 14 1008.8 1008.8 0.0
20/12:30pm 43.2 39.2 5.0 10 21.3 SE 15 28 8 15 1009.4 1009.4 0.0
20/12:00pm 41.9 36.8 4.0 10 20.7 SE 20 32 11 17 1010.1 1010.1 0.0
20/11:30am 42.1 37.9 5.6 11 20.4 SSE 17 37 9 20 1010.7 1010.7 0.0
20/11:00am 40.9 35.4 5.9 12 19.6 SSE 24 39 13 21 1011.5 1011.5 0.0
20/10:30am 39.7 33.1 6.1 13 18.7 SSE 30 43 16 23 1012.2 1012.2 0.0
20/10:00am 38.1 33.1 7.9 16 17.2 S 24 33 13 18 1013.0 1013.0 0.0
20/09:30am 36.7 32.4 7.7 17 16.3 S 20 30 11 16 1013.5 1013.5 0.0
20/09:00am 35.1 32.2 10.9 23 14.2 SSW 17 28 9 15 1014.1 1014.1 0.0
20/08:30am 33.7 31.9 13.2 29 12.4 S 15 20 8 11 1014.6 1014.6 0.0
20/08:00am 32.5 30.3 12.2 29 12.0 S 15 22 8 12 1014.9 1014.9 0.0
20/07:30am 31.4 30.9 15.0 37 10.1 S 11 17 6 9 1015.0 1015.0 0.0
20/07:00am 29.6 30.2 17.8 49 7.5 SW 11 15 6 8 1014.7 1014.7 0.0
20/06:30am 27.6 30.1 19.9 63 5.0 SW 6 9 3 5 1014.8 1014.8 0.0
20/06:00am 25.0 26.8 18.4 66 4.2 W 6 7 3 4 1014.6 1014.6 0.0
20/05:30am 24.2 26.8 18.4 70 3.7 N 2 6 1 3 1014.7 1014.7 0.0
20/05:00am 24.6 26.1 18.8 70 3.7 NE 9 13 5 7 1014.4 1014.4 0.0
20/04:30am 24.8 24.9 18.3 67 4.1 ENE 15 19 8 10 1014.0 1014.0 0.0
20/04:00am 24.9 27.0 18.1 66 4.3 E 4 6 2 3 1013.0 1013.0 0.0
20/03:30am 25.2 26.6 17.9 64 4.6 NE 7 9 4 5 1012.4 1012.4 0.0
20/03:00am 24.9 26.2 18.4 67 4.1 NNE 9 11 5 6 1011.8 1011.8 0.0
20/02:30am 24.7 25.4 17.9 66 4.3 N 11 17 6 9 1011.7 1011.7 0.0
20/02:00am 26.1 27.6 17.7 60 5.3 S 6 9 3 5 1011.4 1011.4 0.0
20/01:30am 26.7 27.4 18.0 59 5.5 S 11 13 6 7 1011.4 1011.4 0.0
20/01:00am 27.3 26.8 16.9 53 6.5 S 15 19 8 10 1011.6 1011.6 0.0
20/12:30am 27.5 26.7 15.2 47 7.5 S 13 17 7 9 1012.1 1012.1 0.0
20/12:00am 28.0 26.3 13.5 41 8.6 SSW 15 17 8 9 1012.4 1012.4 0.0
 
Date/Time
WST
Temp
°C
App
Temp
°C
Dew
Point
°C
Rel
Hum
%
Delta-T
°C
Wind Press
QNH
hPa
Press
MSL
hPa
Rain since
9am
mm
Dir  Spd
km/h
Gust
km/h
Spd
kts
Gust
kts
19/11:30pm 28.3 26.7 11.4 35 9.7 S 11 13 6 7 1012.7 1012.7 0.0
19/11:00pm 28.6 27.0 12.9 38 9.2 S 13 15 7 8 1013.1 1013.1 0.0
19/10:30pm 29.6 28.1 14.2 39 9.3 SSW 15 17 8 9 1013.3 1013.3 0.0
19/10:00pm 29.9 29.1 15.2 41 9.0 SSW 13 15 7 8 1013.3 1013.3 0.0
19/09:30pm 30.0 30.2 16.8 45 8.3 SW 11 13 6 7 1013.2 1013.2 0.0
19/09:00pm 30.8 30.8 18.2 47 8.1 W 15 17 8 9 1013.2 1013.2 0.0
19/08:30pm 31.2 30.4 17.9 45 8.5 WNW 19 22 10 12 1013.2 1013.2 0.0
19/08:00pm 31.0 30.0 16.6 42 9.1 WNW 17 20 9 11 1012.9 1012.9 0.0
19/07:30pm 31.2 30.2 17.5 44 8.7 NW 19 20 10 11 1012.7 1012.7 0.0
19/07:00pm 31.3 29.8 15.3 38 9.9 NW 17 20 9 11 1012.5 1012.5 0.0
19/06:30pm 32.2 30.5 15.7 37 10.3 NW 19 24 10 13 1012.1 1012.1 0.0
19/06:00pm 32.5 30.8 14.6 34 11.0 NW 17 22 9 12 1011.9 1011.9 0.0
19/05:30pm 33.7 31.8 15.2 33 11.5 NW 19 22 10 12 1011.7 1011.7 0.0
19/05:00pm 34.9 32.3 13.7 28 13.0 WNW 20 24 11 13 1011.5 1011.5 0.0

Other formats

Comma delimited format used in spreadsheet applications
http://www.bom.gov.au/fwo/IDW60801/IDW60801.95205.axf

JavaScript Object Notation format (JSON) in row-major order
http://www.bom.gov.au/fwo/IDW60801/IDW60801.95205.json

Data quality

Most of these data are generated automatically and are frequently updated. Quality checks on data are not normally performed. It is possible for incorrect values to appear. Refer to information at About Latest Weather Observations and please check the disclaimer before using these data.